Time;durP1;ratioP1;P1;durP2;ratioP2;P2;SDS_P1;SDS_P2;PMS_P1;PMS_P2;Temp;Humidity;BMP_temperature;BMP_pressure;BME280_temperature;BME280_humidity;BME280_pressure;Samples;Min_cycle;Max_cycle;Signal;HPM_P1;HPM_P2
2023/02/07 00:01:43;;;;;;;12.40;11.20;;;0.00;99.90;;;;;;5091894;28;20503;-79
2023/02/07 00:04:17;;;;;;;14.17;12.27;;;0.10;99.90;;;;;;5091376;28;20518;-79
2023/02/07 00:06:54;;;;;;;16.00;13.00;;;0.10;99.90;;;;;;5095401;28;20456;-82
2023/02/07 00:09:23;;;;;;;13.97;12.57;;;0.00;99.90;;;;;;5087076;28;20464;-79
2023/02/07 00:11:58;;;;;;;16.80;13.10;;;0.10;99.90;;;;;;5096273;28;21023;-79
2023/02/07 00:14:27;;;;;;;13.43;12.03;;;0.00;99.90;;;;;;5096759;28;20476;-79
2023/02/07 00:16:56;;;;;;;15.10;12.13;;;0.00;99.90;;;;;;5101605;28;20464;-79
2023/02/07 00:19:24;;;;;;;13.33;11.93;;;0.00;99.90;;;;;;5084750;28;20465;-77
2023/02/07 00:21:55;;;;;;;13.87;12.10;;;0.00;99.90;;;;;;5087428;28;20491;-78
2023/02/07 00:24:23;;;;;;;15.30;13.17;;;0.00;99.90;;;;;;5089016;28;20465;-77
2023/02/07 00:26:51;;;;;;;14.43;12.30;;;0.00;99.90;;;;;;5086706;28;20949;-77
2023/02/07 00:29:21;;;;;;;15.37;12.73;;;0.00;99.90;;;;;;5093405;28;20898;-77
2023/02/07 00:31:50;;;;;;;13.67;12.23;;;0.00;99.90;;;;;;5085505;28;20487;-77
2023/02/07 00:34:30;;;;;;;14.27;12.73;;;0.00;99.90;;;;;;5088854;28;20476;-78
2023/02/07 00:37:05;;;;;;;16.57;12.83;;;0.00;99.90;;;;;;5086420;28;20464;-77
2023/02/07 00:39:39;;;;;;;16.13;12.63;;;0.00;99.90;;;;;;5083740;28;20468;-77
2023/02/07 00:42:07;;;;;;;18.13;12.83;;;0.00;99.90;;;;;;5082580;28;20493;-77
2023/02/07 00:44:51;;;;;;;15.93;12.97;;;0.00;99.90;;;;;;5098168;28;20643;-78
2023/02/07 00:47:19;;;;;;;15.60;12.67;;;0.00;99.90;;;;;;5073314;28;20485;-78
2023/02/07 00:49:56;;;;;;;13.87;12.30;;;0.00;99.90;;;;;;5080632;28;20982;-78
2023/02/07 00:52:26;;;;;;;15.17;12.40;;;0.00;99.90;;;;;;5090630;28;20491;-78
2023/02/07 00:54:54;;;;;;;16.73;12.90;;;0.00;99.90;;;;;;5079873;28;20955;-78
2023/02/07 00:57:25;;;;;;;15.43;12.93;;;-0.10;99.90;;;;;;5078142;28;20471;-77
2023/02/07 01:00:00;;;;;;;14.13;12.63;;;-0.10;99.90;;;;;;5076061;28;20500;-78
2023/02/07 01:02:31;;;;;;;15.40;12.77;;;-0.10;99.90;;;;;;5068001;28;20484;-78
2023/02/07 01:05:03;;;;;;;14.93;13.33;;;-0.10;99.90;;;;;;5068545;28;20474;-78
2023/02/07 01:07:33;;;;;;;14.67;13.17;;;-0.20;99.90;;;;;;5063970;28;20935;-78
2023/02/07 01:10:06;;;;;;;15.73;12.90;;;-0.10;99.90;;;;;;5074497;28;20497;-77
2023/02/07 01:12:38;;;;;;;15.07;12.80;;;-0.10;99.90;;;;;;5074408;28;20495;-78
2023/02/07 01:15:10;;;;;;;14.73;12.80;;;-0.10;99.90;;;;;;5072462;28;20565;-78
2023/02/07 01:17:49;;;;;;;14.87;12.87;;;-0.20;99.90;;;;;;5064779;28;21313;-78
2023/02/07 01:20:28;;;;;;;14.40;12.90;;;-0.20;99.90;;;;;;5070116;28;21226;-78
2023/02/07 01:22:56;;;;;;;15.40;12.73;;;-0.20;99.90;;;;;;5066988;28;20491;-77
2023/02/07 01:25:26;;;;;;;17.60;13.30;;;-0.20;99.90;;;;;;5077684;28;20462;-78
2023/02/07 01:27:59;;;;;;;15.27;12.90;;;-0.20;99.90;;;;;;5073608;28;20487;-77
2023/02/07 01:30:30;;;;;;;14.30;12.80;;;-0.20;99.90;;;;;;5078610;28;20497;-78
2023/02/07 01:32:58;;;;;;;17.47;13.50;;;-0.20;99.90;;;;;;5069556;28;20484;-78
2023/02/07 01:35:32;;;;;;;16.23;14.30;;;-0.30;99.90;;;;;;5072517;28;21043;-78
2023/02/07 01:38:01;;;;;;;14.90;13.30;;;-0.30;99.90;;;;;;5076192;28;20840;-78
2023/02/07 01:40:36;;;;;;;15.57;13.93;;;-0.30;99.90;;;;;;5086110;28;20492;-80
2023/02/07 01:43:11;;;;;;;14.80;13.20;;;-0.30;99.90;;;;;;5074145;28;20484;-78
2023/02/07 01:45:42;;;;;;;16.20;13.80;;;-0.30;99.90;;;;;;5083327;28;20461;-78
2023/02/07 01:48:16;;;;;;;17.20;14.63;;;-0.30;99.90;;;;;;5089745;28;20456;-78
2023/02/07 01:50:59;;;;;;;;;;;;;;;;;;;;;
2023/02/07 01:53:30;;;;;;;16.93;14.63;;;-0.30;99.90;;;;;;5077749;28;20495;-79
2023/02/07 01:56:03;;;;;;;17.60;14.80;;;-0.20;99.90;;;;;;5080085;28;20488;-79
2023/02/07 01:58:37;;;;;;;14.30;12.80;;;-0.20;99.90;;;;;;5081574;28;20480;-79
2023/02/07 02:01:21;;;;;;;18.13;16.17;;;-0.30;99.90;;;;;;5088238;28;21042;-80
2023/02/07 02:03:54;;;;;;;18.87;14.43;;;-0.30;99.90;;;;;;5075599;28;20513;-78
2023/02/07 02:06:32;;;;;;;15.40;13.33;;;-0.30;99.90;;;;;;5075280;28;20468;-78
2023/02/07 02:09:11;;;;;;;14.50;13.00;;;-0.40;99.90;;;;;;5082121;28;20956;-77
2023/02/07 02:12:10;;;;;;;17.67;14.63;;;-0.40;99.90;;;;;;5075369;28;20496;-78
2023/02/07 02:14:55;;;;;;;14.77;13.10;;;-0.40;99.90;;;;;;5070110;28;20473;-78
2023/02/07 02:17:35;;;;;;;16.00;13.83;;;-0.40;99.90;;;;;;5059932;28;20496;-77
2023/02/07 02:20:40;;;;;;;19.70;13.87;;;-0.40;99.90;;;;;;5068738;28;21290;-77
2023/02/07 02:23:18;;;;;;;16.17;14.00;;;-0.50;99.90;;;;;;5077014;28;20494;-78
2023/02/07 02:26:36;;;;;;;13.87;12.40;;;-0.50;99.90;;;;;;5067837;28;20544;-79
2023/02/07 02:29:36;;;;;;;14.60;12.97;;;-0.50;99.90;;;;;;5068405;28;20573;-78
2023/02/07 02:32:32;;;;;;;17.37;13.87;;;-0.50;99.90;;;;;;5055492;28;20500;-77
2023/02/07 02:35:13;;;;;;;17.40;14.00;;;-0.60;99.90;;;;;;5062617;28;20492;-79
2023/02/07 02:37:52;;;;;;;16.70;13.40;;;-0.60;99.90;;;;;;5066424;28;20489;-78
2023/02/07 02:40:29;;;;;;;14.23;12.73;;;-0.60;99.90;;;;;;5079106;28;20506;-78
2023/02/07 02:43:05;;;;;;;16.57;13.80;;;-0.60;99.90;;;;;;5081696;28;20510;-78
2023/02/07 02:45:38;;;;;;;15.17;13.57;;;-0.60;99.90;;;;;;5077193;28;20486;-77
2023/02/07 02:48:10;;;;;;;15.93;12.93;;;-0.60;99.90;;;;;;5092879;28;20490;-78
2023/02/07 02:50:44;;;;;;;16.70;13.50;;;-0.60;99.90;;;;;;5077264;28;20484;-78
2023/02/07 02:53:13;;;;;;;14.80;13.20;;;-0.60;99.90;;;;;;5070106;28;20487;-78
2023/02/07 02:56:09;;;;;;;15.20;13.60;;;-0.60;99.90;;;;;;5071987;28;20460;-77
2023/02/07 02:59:11;;;;;;;19.43;14.73;;;-0.60;99.90;;;;;;5075130;28;20556;-78
2023/02/07 03:01:54;;;;;;;17.37;12.67;;;-0.60;99.90;;;;;;5080554;28;20489;-78
2023/02/07 03:04:32;;;;;;;17.73;13.40;;;-0.60;99.90;;;;;;5078701;28;20462;-78
2023/02/07 03:07:26;;;;;;;16.60;13.83;;;-0.70;99.90;;;;;;5072851;28;22013;-79
2023/02/07 03:10:04;;;;;;;17.73;13.37;;;-0.70;99.90;;;;;;5091484;28;21145;-79
2023/02/07 03:12:40;;;;;;;16.40;13.60;;;-0.70;99.90;;;;;;5092495;28;20491;-78
2023/02/07 03:15:16;;;;;;;16.73;13.77;;;-0.70;99.90;;;;;;5078762;28;20478;-80
2023/02/07 03:17:54;;;;;;;16.07;13.63;;;-0.70;99.90;;;;;;5069568;28;20999;-79
2023/02/07 03:20:31;;;;;;;16.37;14.00;;;-0.70;99.90;;;;;;5080204;28;20484;-78
2023/02/07 03:23:01;;;;;;;18.33;13.60;;;-0.70;99.90;;;;;;5067136;28;20554;-79
2023/02/07 03:25:31;;;;;;;17.90;14.30;;;-0.70;99.90;;;;;;5069714;28;20468;-78
2023/02/07 03:28:02;;;;;;;15.30;13.00;;;-0.60;99.90;;;;;;5068887;28;20465;-77
2023/02/07 03:30:36;;;;;;;15.00;12.60;;;-0.60;99.90;;;;;;5074954;28;21257;-78
2023/02/07 03:33:11;;;;;;;16.10;13.00;;;-0.60;99.90;;;;;;5075463;28;20492;-78
2023/02/07 03:35:49;;;;;;;14.93;12.73;;;-0.60;99.90;;;;;;5073284;28;20464;-77
2023/02/07 03:38:21;;;;;;;16.10;13.40;;;-0.70;99.90;;;;;;5088870;28;20506;-78
2023/02/07 03:40:58;;;;;;;14.57;12.63;;;-0.70;99.90;;;;;;5091521;28;20504;-78
2023/02/07 03:43:39;;;;;;;15.30;13.27;;;-0.70;99.90;;;;;;5070167;28;20487;-78
2023/02/07 03:46:09;;;;;;;13.40;12.00;;;-0.70;99.90;;;;;;5102935;22;20487;-90
2023/02/07 03:48:37;;;;;;;14.20;12.30;;;-0.70;99.90;;;;;;5086997;28;20573;-86
2023/02/07 03:51:06;;;;;;;15.83;14.10;;;-0.70;99.90;;;;;;5094758;28;20469;-90
2023/02/07 03:53:36;;;;;;;16.50;14.73;;;-0.80;99.90;;;;;;5090548;28;20475;-90
2023/02/07 03:56:05;;;;;;;17.50;14.17;;;-0.80;99.90;;;;;;5081916;28;20596;-89
2023/02/07 03:58:33;;;;;;;14.73;12.60;;;-0.80;99.90;;;;;;5084870;28;20461;-89
2023/02/07 04:01:01;;;;;;;19.37;14.63;;;-0.80;99.90;;;;;;5087681;28;20462;-86
2023/02/07 04:03:30;;;;;;;16.67;13.03;;;-0.80;99.90;;;;;;5081651;28;20470;-86
2023/02/07 04:05:58;;;;;;;15.10;12.70;;;-0.80;99.90;;;;;;5090321;28;20469;-89
2023/02/07 04:08:26;;;;;;;17.37;13.17;;;-0.90;99.90;;;;;;5088638;28;20453;-86
2023/02/07 04:11:00;;;;;;;14.00;12.10;;;-0.90;99.90;;;;;;5090726;28;20460;-89
2023/02/07 04:13:29;;;;;;;14.33;12.47;;;-0.90;99.90;;;;;;5087151;28;20457;-89
2023/02/07 04:15:57;;;;;;;14.50;12.30;;;-0.90;99.90;;;;;;5088479;28;20464;-88
2023/02/07 04:18:26;;;;;;;14.43;12.60;;;-1.00;99.90;;;;;;5089812;28;20511;-88
2023/02/07 04:21:01;;;;;;;14.00;12.50;;;-1.00;99.90;;;;;;5087944;28;20465;-88
2023/02/07 04:23:33;;;;;;;14.67;12.93;;;-1.00;99.90;;;;;;5087159;28;20450;-88
2023/02/07 04:26:03;;;;;;;17.37;12.13;;;-1.00;99.90;;;;;;5088729;28;20803;-89
2023/02/07 04:28:31;;;;;;;15.40;12.73;;;-1.00;99.90;;;;;;5087717;28;20453;-87
2023/02/07 04:31:00;;;;;;;17.70;12.90;;;-1.00;99.90;;;;;;5088772;28;20468;-90
2023/02/07 04:33:36;;;;;;;14.60;13.10;;;-1.00;99.90;;;;;;5086577;27;20458;-89
2023/02/07 04:36:06;;;;;;;18.80;12.90;;;-1.00;99.90;;;;;;5084771;28;20473;-88
2023/02/07 04:38:34;;;;;;;14.73;12.97;;;-1.00;99.90;;;;;;5086572;28;20581;-91
2023/02/07 04:41:05;;;;;;;17.70;13.23;;;-1.00;99.90;;;;;;5083644;28;21461;-92
2023/02/07 04:43:39;;;;;;;14.40;12.70;;;-1.10;99.90;;;;;;5080992;28;20473;-88
2023/02/07 04:46:08;;;;;;;15.23;13.57;;;-1.10;99.90;;;;;;5085238;28;20524;-91
2023/02/07 04:48:37;;;;;;;14.70;12.40;;;-1.10;99.90;;;;;;5081196;28;20471;-89
2023/02/07 04:51:14;;;;;;;16.40;13.40;;;-1.10;99.90;;;;;;5083017;28;20449;-90
2023/02/07 04:53:42;;;;;;;16.40;12.43;;;-1.20;99.90;;;;;;5086070;28;20492;-88
2023/02/07 04:56:13;;;;;;;14.37;12.63;;;-1.20;99.90;;;;;;5086980;28;20453;-89
2023/02/07 04:58:41;;;;;;;15.30;12.40;;;-1.30;99.90;;;;;;5080751;28;20478;-90
2023/02/07 05:01:10;;;;;;;14.83;13.17;;;-1.30;99.90;;;;;;5082179;28;20469;-88
2023/02/07 05:03:38;;;;;;;15.43;13.03;;;-1.30;99.90;;;;;;5084404;28;21246;-88
2023/02/07 05:06:07;;;;;;;18.07;12.90;;;-1.30;99.90;;;;;;5085096;28;20516;-89
2023/02/07 05:08:37;;;;;;;12.53;11.20;;;-1.30;99.90;;;;;;5084324;28;20580;-91
2023/02/07 05:11:06;;;;;;;15.07;12.97;;;-1.30;99.90;;;;;;5083699;28;20509;-88
2023/02/07 05:13:36;;;;;;;16.23;13.23;;;-1.40;99.90;;;;;;5086060;28;20454;-90
2023/02/07 05:16:06;;;;;;;15.77;13.30;;;-1.40;99.90;;;;;;5085877;28;20521;-89
2023/02/07 05:18:37;;;;;;;15.90;13.00;;;-1.40;99.90;;;;;;5086871;28;20470;-90
2023/02/07 05:21:06;;;;;;;14.73;12.20;;;-1.40;99.90;;;;;;5088451;28;20569;-89
2023/02/07 05:23:37;;;;;;;15.00;12.80;;;-1.40;99.90;;;;;;5092582;27;20446;-90
2023/02/07 05:26:17;;;;;;;16.80;11.60;;;-1.40;99.90;;;;;;5088070;28;20570;-89
2023/02/07 05:34:33;;;;;;;14.70;12.90;;;-1.50;99.90;;;;;;5004174;28;20597;-72
2023/02/07 05:37:05;;;;;;;13.60;12.13;;;-1.50;99.90;;;;;;5031294;28;20511;-73
2023/02/07 05:39:35;;;;;;;16.70;12.37;;;-1.60;99.90;;;;;;5054194;28;21008;-73
2023/02/07 05:42:05;;;;;;;15.87;13.90;;;-1.60;99.90;;;;;;5054958;28;20569;-72
2023/02/07 05:44:41;;;;;;;15.23;12.20;;;-1.60;99.90;;;;;;5072393;28;20462;-72
2023/02/07 05:47:13;;;;;;;15.40;12.73;;;-1.60;99.90;;;;;;5069741;28;20529;-73
2023/02/07 05:49:42;;;;;;;16.50;13.57;;;-1.70;99.90;;;;;;5059253;28;20481;-73
2023/02/07 05:52:15;;;;;;;14.23;11.97;;;-1.70;99.90;;;;;;5059016;28;20568;-74
2023/02/07 05:54:45;;;;;;;13.87;12.47;;;-1.70;99.90;;;;;;5062109;28;20470;-73
2023/02/07 05:57:18;;;;;;;17.07;13.20;;;-1.70;99.90;;;;;;5058759;28;20471;-73
2023/02/07 05:59:51;;;;;;;15.70;12.90;;;-1.70;99.90;;;;;;5054707;28;20462;-72
2023/02/07 06:02:22;;;;;;;16.50;13.63;;;-1.70;99.90;;;;;;5046932;28;20497;-73
2023/02/07 06:04:52;;;;;;;13.90;12.40;;;-1.70;99.90;;;;;;5043362;28;20469;-72
2023/02/07 06:07:25;;;;;;;16.03;12.50;;;-1.70;99.90;;;;;;5055829;28;20499;-73
2023/02/07 06:09:53;;;;;;;16.50;12.60;;;-1.70;99.90;;;;;;5043783;28;20476;-73
2023/02/07 06:12:21;;;;;;;14.30;12.63;;;-1.70;99.90;;;;;;5044291;28;20489;-73
2023/02/07 06:14:54;;;;;;;14.30;12.30;;;-1.80;99.90;;;;;;5039792;28;20493;-72
2023/02/07 06:17:23;;;;;;;14.73;12.10;;;-1.80;99.90;;;;;;5040286;28;20475;-73
2023/02/07 06:19:55;;;;;;;15.30;13.50;;;-1.80;99.90;;;;;;5047257;28;20490;-73
2023/02/07 06:22:29;;;;;;;15.83;12.83;;;-1.80;99.90;;;;;;5022596;28;20507;-73
2023/02/07 06:24:57;;;;;;;16.23;13.13;;;-1.80;99.90;;;;;;5036423;28;20489;-74
2023/02/07 06:27:25;;;;;;;16.00;13.43;;;-1.70;99.90;;;;;;5030434;28;20477;-73
2023/02/07 06:29:55;;;;;;;16.00;12.63;;;-1.80;99.90;;;;;;5038624;28;20481;-73
2023/02/07 06:32:23;;;;;;;16.17;14.43;;;-1.80;99.90;;;;;;5035622;28;20489;-72
2023/02/07 06:34:51;;;;;;;14.17;12.67;;;-1.80;99.90;;;;;;5043601;28;20474;-73
2023/02/07 06:37:22;;;;;;;14.60;11.60;;;-1.90;99.90;;;;;;5045210;28;20489;-72
2023/02/07 06:39:53;;;;;;;16.80;13.13;;;-1.80;99.90;;;;;;5048871;28;20996;-74
2023/02/07 06:42:20;;;;;;;16.87;12.80;;;-1.80;99.90;;;;;;5043566;28;20489;-73
2023/02/07 06:44:48;;;;;;;14.57;12.00;;;-1.80;99.90;;;;;;5050624;28;20479;-73
2023/02/07 06:47:19;;;;;;;15.50;12.83;;;-1.80;99.90;;;;;;5050408;28;20807;-73
2023/02/07 06:49:49;;;;;;;15.33;12.83;;;-1.70;99.90;;;;;;5051623;28;20466;-74
2023/02/07 06:52:20;;;;;;;16.00;12.67;;;-1.70;99.90;;;;;;5047567;28;20482;-72
2023/02/07 06:54:49;;;;;;;17.63;12.10;;;-1.70;99.90;;;;;;5054627;28;20473;-73
2023/02/07 06:57:16;;;;;;;15.40;12.63;;;-1.70;99.90;;;;;;5046263;28;21076;-73
2023/02/07 06:59:44;;;;;;;16.47;12.80;;;-1.70;99.90;;;;;;5048064;28;20493;-73
2023/02/07 07:02:13;;;;;;;16.23;12.67;;;-1.70;99.90;;;;;;5043662;28;20500;-73
2023/02/07 07:04:42;;;;;;;15.23;13.63;;;-1.70;99.90;;;;;;5042386;28;20528;-73
2023/02/07 07:07:10;;;;;;;16.60;12.90;;;-1.70;99.90;;;;;;5050046;28;20477;-73
2023/02/07 07:09:38;;;;;;;16.90;12.80;;;-1.70;99.90;;;;;;5063354;28;20496;-73
2023/02/07 07:12:06;;;;;;;17.17;13.33;;;-1.70;99.90;;;;;;5045103;28;20540;-74
2023/02/07 07:14:34;;;;;;;17.93;13.53;;;-1.70;99.90;;;;;;5059311;28;20477;-74
2023/02/07 07:17:02;;;;;;;18.87;14.77;;;-1.80;99.90;;;;;;5054263;28;20565;-73
2023/02/07 07:19:30;;;;;;;19.70;14.53;;;-1.80;99.90;;;;;;5070063;28;20546;-73
2023/02/07 07:22:01;;;;;;;20.20;14.87;;;-1.80;99.90;;;;;;5067054;28;20482;-73
2023/02/07 07:24:29;;;;;;;19.00;14.93;;;-1.80;99.90;;;;;;5067833;28;20462;-73
2023/02/07 07:26:57;;;;;;;18.80;14.20;;;-1.80;99.90;;;;;;5068550;28;20485;-73
2023/02/07 07:29:27;;;;;;;22.73;14.00;;;-1.90;99.90;;;;;;5052890;28;21287;-75
2023/02/07 07:31:55;;;;;;;17.83;14.00;;;-1.90;99.90;;;;;;5054558;28;20838;-73
2023/02/07 07:34:23;;;;;;;17.13;13.70;;;-1.80;99.90;;;;;;5059603;28;20477;-73
2023/02/07 07:36:52;;;;;;;19.70;14.73;;;-1.80;99.90;;;;;;5068025;28;20492;-74
2023/02/07 07:39:22;;;;;;;17.50;14.00;;;-1.90;99.90;;;;;;5062188;28;20497;-73
2023/02/07 07:41:50;;;;;;;19.33;14.53;;;-1.80;99.90;;;;;;5062038;28;20478;-73
2023/02/07 07:44:18;;;;;;;18.80;13.67;;;-1.80;99.90;;;;;;5057526;28;20470;-74
2023/02/07 07:46:46;;;;;;;17.83;14.60;;;-1.70;99.90;;;;;;5064787;28;20516;-74
2023/02/07 07:49:15;;;;;;;17.90;15.10;;;-1.70;99.90;;;;;;5065446;28;20550;-74
2023/02/07 07:51:43;;;;;;;18.00;14.27;;;-1.70;99.90;;;;;;5065057;28;20486;-73
2023/02/07 07:54:11;;;;;;;19.93;14.47;;;-1.60;99.90;;;;;;5056303;28;20493;-72
2023/02/07 07:56:40;;;;;;;21.07;14.33;;;-1.60;99.90;;;;;;5056130;28;21019;-73
2023/02/07 07:59:08;;;;;;;18.70;13.50;;;-1.60;99.90;;;;;;5050952;28;20498;-73
2023/02/07 08:01:50;;;;;;;18.80;14.30;;;-1.50;99.90;;;;;;5053008;28;20486;-72
2023/02/07 08:04:18;;;;;;;19.20;14.53;;;-1.50;99.90;;;;;;5062403;28;20474;-74
2023/02/07 08:06:46;;;;;;;18.07;14.60;;;-1.40;99.90;;;;;;5057193;28;20508;-73
2023/02/07 08:09:16;;;;;;;18.67;13.90;;;-1.40;99.90;;;;;;5064961;28;20461;-73
2023/02/07 08:11:45;;;;;;;18.07;14.50;;;-1.40;99.90;;;;;;5054253;28;20568;-74
2023/02/07 08:14:13;;;;;;;17.80;14.07;;;-1.30;99.90;;;;;;5058998;28;20470;-73
2023/02/07 08:16:41;;;;;;;18.90;14.27;;;-1.30;99.90;;;;;;5059405;28;20485;-73
2023/02/07 08:19:09;;;;;;;18.40;14.10;;;-1.30;99.90;;;;;;5069032;28;20508;-73
2023/02/07 08:21:37;;;;;;;18.83;14.40;;;-1.30;99.90;;;;;;5058319;28;20489;-72
2023/02/07 08:24:06;;;;;;;18.87;14.57;;;-1.30;99.90;;;;;;5062343;28;20483;-72
2023/02/07 08:26:33;;;;;;;24.73;15.60;;;-1.20;99.90;;;;;;5070645;28;20497;-73
2023/02/07 08:29:03;;;;;;;20.67;14.53;;;-1.20;99.90;;;;;;5063302;28;20981;-72
2023/02/07 08:31:33;;;;;;;19.20;15.83;;;-1.10;99.90;;;;;;5056322;28;20478;-73
2023/02/07 08:34:02;;;;;;;20.57;14.43;;;-1.10;99.90;;;;;;5062605;28;20470;-73
2023/02/07 08:36:29;;;;;;;16.90;14.03;;;-1.00;99.90;;;;;;5061134;28;20504;-74
2023/02/07 08:38:58;;;;;;;20.53;15.40;;;-1.00;99.90;;;;;;5060451;28;20474;-74
2023/02/07 08:41:25;;;;;;;22.17;16.30;;;-1.00;99.90;;;;;;5061258;28;20907;-73
2023/02/07 08:43:53;;;;;;;20.03;15.37;;;-0.90;99.90;;;;;;5061270;28;20490;-74
2023/02/07 08:46:23;;;;;;;21.13;15.20;;;-0.90;99.90;;;;;;5057950;28;25576;-73
2023/02/07 08:48:51;;;;;;;23.73;16.50;;;-0.80;99.90;;;;;;5062194;28;20465;-72
2023/02/07 08:51:19;;;;;;;20.90;16.40;;;-0.80;99.90;;;;;;5051112;28;20846;-72
2023/02/07 08:53:47;;;;;;;18.67;15.57;;;-0.80;99.90;;;;;;5054061;28;20996;-73
2023/02/07 08:56:15;;;;;;;23.17;17.07;;;-0.70;99.90;;;;;;5067661;28;20485;-73
2023/02/07 08:58:44;;;;;;;28.27;19.10;;;-0.70;99.90;;;;;;5065020;28;20481;-73
2023/02/07 09:01:12;;;;;;;26.53;18.90;;;-0.60;99.90;;;;;;5063961;28;20497;-74
2023/02/07 09:03:42;;;;;;;21.97;16.20;;;-0.60;99.90;;;;;;5059238;28;20531;-74
2023/02/07 09:06:10;;;;;;;25.03;17.67;;;-0.60;99.90;;;;;;5055706;28;20494;-74
2023/02/07 09:08:38;;;;;;;25.83;16.50;;;-0.50;99.90;;;;;;5062591;28;20560;-73
2023/02/07 09:11:06;;;;;;;21.40;17.07;;;-0.50;99.90;;;;;;5065710;28;20461;-73
2023/02/07 09:13:37;;;;;;;22.10;15.73;;;-0.50;99.90;;;;;;5055510;28;20553;-73
2023/02/07 09:16:07;;;;;;;24.00;17.97;;;-0.40;99.90;;;;;;5057874;28;20498;-72
2023/02/07 09:18:35;;;;;;;22.70;15.97;;;-0.40;99.90;;;;;;5065284;28;20473;-72
2023/02/07 09:21:06;;;;;;;22.50;16.50;;;-0.30;99.90;;;;;;5060889;28;20501;-73
2023/02/07 09:23:35;;;;;;;22.93;16.67;;;-0.30;99.90;;;;;;5068927;28;20461;-74
2023/02/07 09:26:05;;;;;;;21.40;16.50;;;-0.30;99.90;;;;;;5065906;28;20505;-74
2023/02/07 09:28:34;;;;;;;23.50;16.60;;;-0.20;99.90;;;;;;5065451;28;20465;-73
2023/02/07 09:31:09;;;;;;;21.23;16.10;;;-0.20;99.90;;;;;;5059021;28;20541;-73
2023/02/07 09:33:41;;;;;;;19.50;15.60;;;-0.10;99.90;;;;;;5057617;28;20475;-72
2023/02/07 09:36:18;;;;;;;19.50;15.00;;;-0.10;99.90;;;;;;5050492;28;20485;-74
2023/02/07 09:38:49;;;;;;;22.20;15.70;;;-0.10;99.90;;;;;;5048176;28;20842;-73
2023/02/07 09:41:31;;;;;;;20.63;15.57;;;0.00;99.90;;;;;;5048872;28;20492;-73
2023/02/07 09:44:07;;;;;;;24.47;15.77;;;0.00;99.90;;;;;;5045885;28;20870;-73
2023/02/07 09:46:38;;;;;;;21.90;15.50;;;0.10;99.90;;;;;;5062145;22;1207846;-79
2023/02/07 09:49:14;;;;;;;19.50;14.73;;;0.10;99.90;;;;;;5066574;28;20473;-79
2023/02/07 09:51:48;;;;;;;20.80;15.17;;;0.10;99.90;;;;;;5070169;28;21035;-80
2023/02/07 09:54:22;;;;;;;22.70;16.23;;;0.10;99.90;;;;;;5090963;28;20846;-81
2023/02/07 09:56:54;;;;;;;22.07;14.80;;;0.20;99.90;;;;;;5084642;28;21219;-79
2023/02/07 09:59:27;;;;;;;20.40;16.03;;;0.20;99.90;;;;;;5093790;28;20463;-78
2023/02/07 10:02:00;;;;;;;22.40;16.70;;;0.30;99.90;;;;;;5086869;28;20485;-78
2023/02/07 10:04:35;;;;;;;22.20;16.47;;;0.30;99.90;;;;;;5082745;28;20473;-82
2023/02/07 10:07:07;;;;;;;23.00;16.53;;;0.40;99.90;;;;;;5078161;28;20485;-78
2023/02/07 10:09:42;;;;;;;22.03;15.63;;;0.40;99.90;;;;;;5077753;28;20477;-79
2023/02/07 10:12:25;;;;;;;23.27;17.03;;;0.40;99.90;;;;;;5072396;28;20488;-83
2023/02/07 10:15:08;;;;;;;22.30;16.33;;;0.50;99.90;;;;;;5081163;28;20897;-81
2023/02/07 10:17:49;;;;;;;22.20;15.70;;;0.50;99.90;;;;;;5073332;28;20540;-81
2023/02/07 10:20:30;;;;;;;23.90;16.90;;;0.50;99.90;;;;;;5075345;28;21015;-79
2023/02/07 10:23:10;;;;;;;22.17;15.80;;;0.50;99.90;;;;;;5079280;28;20484;-79
2023/02/07 10:25:44;;;;;;;21.77;15.33;;;0.60;99.90;;;;;;5075532;28;20537;-79
2023/02/07 10:28:44;;;;;;;20.93;15.57;;;0.70;99.90;;;;;;5080083;28;20489;-78
2023/02/07 10:31:15;;;;;;;21.93;15.63;;;0.70;99.90;;;;;;5062542;28;20468;-79
2023/02/07 10:33:48;;;;;;;24.40;16.70;;;0.80;99.90;;;;;;5080684;28;20460;-80
2023/02/07 10:36:18;;;;;;;24.03;16.87;;;0.80;99.90;;;;;;5076942;28;20480;-79
2023/02/07 10:38:55;;;;;;;24.07;17.20;;;0.80;99.90;;;;;;5079064;28;20475;-79
2023/02/07 10:41:37;;;;;;;19.40;15.30;;;0.90;99.90;;;;;;5079125;28;20488;-79
2023/02/07 10:44:06;;;;;;;24.50;17.10;;;1.00;99.90;;;;;;5084453;28;20956;-79
2023/02/07 10:46:36;;;;;;;24.30;18.37;;;1.00;99.90;;;;;;5080462;28;21068;-79
2023/02/07 10:49:04;;;;;;;23.87;16.80;;;1.10;99.90;;;;;;5071265;28;20472;-80
2023/02/07 10:51:35;;;;;;;25.00;17.60;;;1.10;99.90;;;;;;5076674;28;20487;-79
2023/02/07 10:54:10;;;;;;;25.03;17.70;;;1.20;99.90;;;;;;5085363;28;20473;-78
2023/02/07 10:56:42;;;;;;;25.50;18.00;;;1.30;99.90;;;;;;5080398;28;20469;-78
2023/02/07 10:59:34;;;;;;;23.63;17.73;;;1.30;99.90;;;;;;5082506;28;20469;-79
2023/02/07 11:02:03;;;;;;;20.60;15.60;;;1.40;99.90;;;;;;5078946;28;20523;-79
2023/02/07 11:04:39;;;;;;;24.90;16.73;;;1.40;99.90;;;;;;5085293;28;21384;-79
2023/02/07 11:07:14;;;;;;;24.60;16.60;;;1.50;99.90;;;;;;5087863;28;20499;-79
2023/02/07 11:09:43;;;;;;;22.53;17.03;;;1.60;99.90;;;;;;5079158;28;20478;-83
2023/02/07 11:12:16;;;;;;;21.23;16.07;;;1.60;99.90;;;;;;5080757;28;20496;-80
2023/02/07 11:15:00;;;;;;;23.87;18.07;;;1.70;99.90;;;;;;5080114;28;20484;-80
2023/02/07 11:17:28;;;;;;;26.17;19.10;;;1.80;99.90;;;;;;5077143;28;20519;-78
2023/02/07 11:20:02;;;;;;;26.83;17.20;;;1.80;99.90;;;;;;5080634;28;20485;-79
2023/02/07 11:22:30;;;;;;;23.10;17.13;;;1.90;99.90;;;;;;5085573;28;20492;-80
2023/02/07 11:25:04;;;;;;;25.03;17.47;;;1.90;99.90;;;;;;5080883;28;20476;-79
2023/02/07 11:27:37;;;;;;;26.37;18.97;;;1.90;99.90;;;;;;5072523;28;20476;-79
2023/02/07 11:30:08;;;;;;;26.40;18.33;;;1.90;99.90;;;;;;5084872;28;20476;-80
2023/02/07 11:32:37;;;;;;;26.60;18.53;;;2.00;99.90;;;;;;5077518;28;20488;-80
2023/02/07 11:35:08;;;;;;;27.67;18.70;;;2.10;99.90;;;;;;5079756;28;20492;-82
2023/02/07 11:37:37;;;;;;;24.27;18.60;;;2.20;99.90;;;;;;5086093;28;20567;-83
2023/02/07 11:40:24;;;;;;;24.90;19.20;;;2.30;99.90;;;;;;5076420;28;20470;-80
2023/02/07 11:42:59;;;;;;;26.03;18.30;;;2.30;99.90;;;;;;5082492;28;20477;-79
2023/02/07 11:45:28;;;;;;;25.83;18.50;;;2.40;99.90;;;;;;5087947;28;20472;-81
2023/02/07 11:47:57;;;;;;;23.50;17.80;;;2.40;99.90;;;;;;5088307;28;21015;-79
2023/02/07 11:50:28;;;;;;;24.40;17.60;;;2.50;99.90;;;;;;5081713;28;20485;-81
2023/02/07 11:52:59;;;;;;;21.80;18.60;;;2.70;99.90;;;;;;5082669;28;20515;-79
2023/02/07 11:55:33;;;;;;;25.40;18.77;;;3.00;99.90;;;;;;5079812;28;20484;-80
2023/02/07 11:58:07;;;;;;;22.17;17.57;;;3.40;99.90;;;;;;5091376;28;20492;-81
2023/02/07 12:00:37;;;;;;;21.83;18.10;;;4.00;99.90;;;;;;5088535;28;20473;-81
2023/02/07 12:03:09;;;;;;;19.10;17.10;;;5.00;99.90;;;;;;5085177;28;20481;-82
2023/02/07 12:05:40;;;;;;;20.80;18.60;;;6.80;99.90;;;;;;5083765;28;20468;-79
2023/02/07 12:08:14;;;;;;;21.90;19.60;;;9.80;99.90;;;;;;5079802;28;20516;-80
2023/02/07 12:10:47;;;;;;;21.70;19.70;;;12.40;99.90;;;;;;5074831;28;20468;-80
2023/02/07 12:13:19;;;;;;;20.53;18.63;;;15.10;93.10;;;;;;5072995;28;21087;-80
2023/02/07 12:15:50;;;;;;;23.07;21.07;;;18.30;65.90;;;;;;5075243;28;20469;-78
2023/02/07 12:18:26;;;;;;;24.27;22.20;;;20.70;52.80;;;;;;5081815;28;20493;-78
2023/02/07 12:21:00;;;;;;;22.97;21.17;;;22.40;47.00;;;;;;5073837;28;20495;-78
2023/02/07 12:23:37;;;;;;;21.73;20.13;;;23.70;43.20;;;;;;5057969;28;20481;-79
2023/02/07 12:26:21;;;;;;;22.23;20.63;;;24.40;40.40;;;;;;5061401;28;20499;-78
2023/02/07 12:28:59;;;;;;;22.50;20.70;;;24.90;38.60;;;;;;5072130;28;20464;-79
2023/02/07 12:31:47;;;;;;;21.30;19.80;;;25.40;37.20;;;;;;5065390;28;20496;-79
2023/02/07 12:34:21;;;;;;;21.40;19.90;;;25.40;35.10;;;;;;5071646;28;20521;-79
2023/02/07 12:36:55;;;;;;;20.80;19.30;;;24.20;34.10;;;;;;5068828;28;20490;-79
2023/02/07 12:39:30;;;;;;;20.50;19.10;;;23.10;34.00;;;;;;5079078;28;20472;-78
2023/02/07 12:42:10;;;;;;;22.20;20.50;;;22.90;34.80;;;;;;5074943;28;20495;-78
2023/02/07 12:44:46;;;;;;;20.90;19.47;;;23.60;35.30;;;;;;5069465;28;20464;-78
2023/02/07 12:47:29;;;;;;;21.50;20.10;;;24.40;35.30;;;;;;5060179;28;20503;-78
2023/02/07 12:50:09;;;;;;;20.03;18.73;;;25.20;34.00;;;;;;5055793;28;20543;-78
2023/02/07 12:52:46;;;;;;;20.43;19.13;;;25.60;32.90;;;;;;5063156;28;20488;-78
2023/02/07 12:55:28;;;;;;;20.73;19.43;;;25.60;32.50;;;;;;5063932;28;20940;-78
2023/02/07 12:58:15;;;;;;;20.37;18.97;;;25.30;32.50;;;;;;5069572;28;20491;-78
2023/02/07 13:00:56;;;;;;;19.47;18.20;;;25.10;32.80;;;;;;5064941;28;20472;-78
2023/02/07 13:03:37;;;;;;;18.53;17.33;;;25.00;32.50;;;;;;5073603;28;20643;-78
2023/02/07 13:06:18;;;;;;;20.47;19.10;;;25.30;31.80;;;;;;5077976;28;20502;-78